Time;durP1;ratioP1;P1;durP2;ratioP2;P2;SDS_P1;SDS_P2;PMS_P1;PMS_P2;Temp;Humidity;BMP_temperature;BMP_pressure;BME280_temperature;BME280_humidity;BME280_pressure;Samples;Min_cycle;Max_cycle;Signal;HPM_P1;HPM_P2
2022/10/13 00:02:24;;;;;;;13.05;8.82;;;;;;;9.01;72.78;100721.22;5115881;28;20066;-54
2022/10/13 00:04:51;;;;;;;14.85;8.52;;;;;;;9.00;71.87;100722.34;5129488;27;20066;-53
2022/10/13 00:07:18;;;;;;;13.50;9.20;;;;;;;9.03;73.22;100724.53;5123569;27;20051;-51
2022/10/13 00:09:46;;;;;;;15.73;9.65;;;;;;;9.03;73.38;100721.75;5135086;27;20059;-54
2022/10/13 00:12:13;;;;;;;14.98;8.82;;;;;;;9.06;72.92;100729.50;5136138;27;20058;-53
2022/10/13 00:14:40;;;;;;;15.32;9.00;;;;;;;9.07;73.47;100729.22;5135936;27;20059;-54
2022/10/13 00:17:07;;;;;;;12.45;8.32;;;;;;;9.12;73.77;100731.09;5136009;27;20059;-53
2022/10/13 00:19:39;;;;;;;12.40;8.93;;;;;;;9.13;73.77;100719.69;5135576;27;20047;-55
2022/10/13 00:22:06;;;;;;;10.73;8.65;;;;;;;9.16;72.60;100732.16;5133543;27;20074;-53
2022/10/13 00:24:33;;;;;;;11.32;8.52;;;;;;;9.19;73.76;100725.97;5134864;27;20051;-54
2022/10/13 00:27:01;;;;;;;15.10;8.80;;;;;;;9.28;74.20;100721.41;5135819;27;20066;-56
2022/10/13 00:29:28;;;;;;;16.30;9.98;;;;;;;9.33;73.76;100726.91;5135650;27;20055;-54
2022/10/13 00:31:55;;;;;;;13.90;9.85;;;;;;;9.44;72.92;100721.19;5130104;27;20056;-54
2022/10/13 00:34:22;;;;;;;12.25;9.18;;;;;;;9.52;74.03;100718.56;5115032;28;20074;-54
2022/10/13 00:36:51;;;;;;;11.82;8.85;;;;;;;9.59;73.02;100714.56;5113663;28;20055;-54
2022/10/13 00:39:18;;;;;;;12.70;8.88;;;;;;;9.61;74.44;100715.91;5110438;28;20058;-55
2022/10/13 00:41:46;;;;;;;14.70;10.27;;;;;;;9.70;73.98;100714.13;5115021;28;20059;-54
2022/10/13 00:44:50;;;;;;;11.98;8.10;;;;;;;9.74;73.28;100705.97;5115100;28;20492;-54
2022/10/13 00:47:18;;;;;;;10.70;7.20;;;;;;;9.80;72.57;100706.72;5115371;28;20484;-54
2022/10/13 00:49:45;;;;;;;10.93;6.65;;;;;;;9.83;71.32;100695.00;5114925;28;20063;-54
2022/10/13 00:52:17;;;;;;;9.18;6.45;;;;;;;9.87;71.41;100699.66;5109187;27;20078;-53
2022/10/13 00:54:45;;;;;;;12.52;8.90;;;;;;;9.90;71.39;100699.03;5114812;28;20056;-54
2022/10/13 00:57:12;;;;;;;11.10;8.20;;;;;;;9.94;71.17;100702.03;5114654;28;20059;-53
2022/10/13 00:59:41;;;;;;;9.02;7.45;;;;;;;9.97;72.10;100695.84;5114861;28;20364;-54
2022/10/13 01:02:09;;;;;;;9.55;7.45;;;;;;;10.05;71.49;100688.78;5114742;28;20059;-52
2022/10/13 01:04:39;;;;;;;9.88;7.30;;;;;;;10.07;70.26;100695.66;5107577;27;20051;-54
2022/10/13 01:07:07;;;;;;;15.15;7.30;;;;;;;10.07;70.57;100695.66;5094204;28;20066;-54
2022/10/13 01:09:36;;;;;;;7.97;6.20;;;;;;;10.06;69.62;100699.59;5093954;28;20056;-54
2022/10/13 01:12:12;;;;;;;7.60;5.85;;;;;;;10.09;69.33;100698.97;5094153;28;20067;-54
2022/10/13 01:14:49;;;;;;;8.95;7.03;;;;;;;10.07;69.40;100683.72;5094071;28;20055;-54
2022/10/13 01:17:28;;;;;;;7.60;5.82;;;;;;;10.06;69.25;100691.25;5094032;28;20067;-54
2022/10/13 01:20:31;;;;;;;8.88;6.47;;;;;;;10.06;69.47;100679.31;5103469;28;20056;-55
2022/10/13 01:23:13;;;;;;;9.63;8.07;;;;;;;10.07;69.31;100684.53;5114258;28;20051;-54
2022/10/13 01:26:16;;;;;;;10.90;7.57;;;;;;;10.09;70.07;100678.69;5114497;28;20161;-54
2022/10/13 01:29:07;;;;;;;11.48;7.70;;;;;;;10.14;70.79;100668.28;5070419;28;20055;-53
2022/10/13 01:31:42;;;;;;;14.60;8.20;;;;;;;10.18;71.00;100662.91;5124043;27;20388;-55
2022/10/13 01:34:17;;;;;;;13.63;8.35;;;;;;;10.22;70.40;100657.56;5131961;27;20069;-53
2022/10/13 01:37:00;;;;;;;9.05;7.68;;;;;;;10.27;70.74;100651.91;5134376;27;20057;-53
2022/10/13 01:39:37;;;;;;;13.00;9.30;;;;;;;10.31;71.06;100652.94;5134415;27;20051;-54
2022/10/13 01:42:12;;;;;;;13.80;9.18;;;;;;;10.34;71.60;100644.00;5134517;27;20514;-53
2022/10/13 01:44:45;;;;;;;12.07;9.27;;;;;;;10.38;71.79;100642.25;5134439;27;20051;-54
2022/10/13 01:47:16;;;;;;;11.23;8.90;;;;;;;10.44;71.66;100637.41;5134472;27;20070;-53
2022/10/13 01:49:44;;;;;;;11.77;8.18;;;;;;;10.46;71.37;100630.38;5131435;27;20047;-53
2022/10/13 01:52:15;;;;;;;9.50;7.68;;;;;;;10.47;70.87;100625.63;5135555;27;20059;-55
2022/10/13 01:54:45;;;;;;;9.20;7.38;;;;;;;10.46;70.85;100619.25;5133664;27;20423;-53
2022/10/13 01:57:33;;;;;;;8.38;6.47;;;;;;;10.48;69.67;100630.09;5134344;27;20419;-53
2022/10/13 02:00:03;;;;;;;8.68;6.32;;;;;;;10.44;69.27;100624.31;5128944;27;20066;-54
2022/10/13 02:02:37;;;;;;;7.97;6.05;;;;;;;10.38;68.44;100631.09;5133257;27;20051;-54
2022/10/13 02:05:14;;;;;;;10.25;6.45;;;;;;;10.28;67.63;100636.84;5134290;27;20051;-53
2022/10/13 02:07:46;;;;;;;7.13;5.80;;;;;;;10.22;68.04;100626.94;5133748;27;20059;-54
2022/10/13 02:10:20;;;;;;;8.38;6.35;;;;;;;10.12;68.46;100630.72;5134000;27;20066;-53
2022/10/13 02:12:56;;;;;;;8.45;6.22;;;;;;;10.07;68.58;100623.31;5134015;27;20059;-53
2022/10/13 02:15:28;;;;;;;7.65;6.25;;;;;;;10.04;68.73;100623.94;5131765;27;20295;-53
2022/10/13 02:17:58;;;;;;;10.43;6.85;;;;;;;10.06;68.66;100616.09;5133055;27;20047;-54
2022/10/13 02:20:28;;;;;;;9.25;7.13;;;;;;;10.10;69.31;100619.94;5133878;27;20074;-54
2022/10/13 02:23:01;;;;;;;9.75;6.80;;;;;;;10.13;69.30;100616.50;5134279;27;20051;-55
2022/10/13 02:25:29;;;;;;;8.23;6.80;;;;;;;10.20;69.18;100615.28;5134064;27;20051;-54
2022/10/13 02:27:58;;;;;;;8.05;6.22;;;;;;;10.21;70.02;100623.34;5133956;27;20414;-53
2022/10/13 02:30:30;;;;;;;8.93;6.63;;;;;;;10.26;69.61;100623.22;5133662;27;20066;-55
2022/10/13 02:33:00;;;;;;;11.18;7.95;;;;;;;10.26;70.10;100614.06;5130899;27;20062;-60
2022/10/13 02:35:31;;;;;;;9.25;6.90;;;;;;;10.26;70.31;100620.44;5113105;28;20055;-59
2022/10/13 02:37:58;;;;;;;7.97;6.65;;;;;;;10.29;70.64;100613.41;5113241;28;20074;-60
2022/10/13 02:40:26;;;;;;;9.10;7.15;;;;;;;10.36;70.57;100616.66;5113189;28;20051;-60
2022/10/13 02:42:54;;;;;;;9.48;7.22;;;;;;;10.38;70.16;100617.19;5131154;27;20065;-60
2022/10/13 02:45:21;;;;;;;10.60;7.25;;;;;;;10.42;70.23;100620.19;5133301;27;20058;-59
2022/10/13 02:47:49;;;;;;;10.80;8.40;;;;;;;10.45;70.12;100620.38;5131133;27;20070;-60
2022/10/13 02:50:17;;;;;;;13.05;8.32;;;;;;;10.51;71.06;100619.13;5132076;27;20376;-60
2022/10/13 02:52:45;;;;;;;9.57;8.57;;;;;;;10.53;71.43;100622.44;5133609;27;20051;-59
2022/10/13 02:55:12;;;;;;;10.35;8.48;;;;;;;10.60;71.43;100619.22;5133194;27;20051;-59
2022/10/13 02:57:39;;;;;;;13.20;8.57;;;;;;;10.65;71.81;100621.09;5133541;27;20078;-60
2022/10/13 03:00:08;;;;;;;10.40;7.93;;;;;;;10.74;70.14;100614.47;5133067;27;20066;-59
2022/10/13 03:02:35;;;;;;;12.35;9.52;;;;;;;10.75;71.41;100620.84;5132910;27;20055;-59
2022/10/13 03:05:05;;;;;;;11.20;8.63;;;;;;;10.77;70.92;100607.44;5128402;27;20082;-59
2022/10/13 03:07:34;;;;;;;11.65;8.65;;;;;;;10.83;70.75;100617.31;5132919;27;20054;-60
2022/10/13 03:10:01;;;;;;;12.73;8.90;;;;;;;10.88;70.98;100624.78;5133226;27;20055;-59
2022/10/13 03:12:31;;;;;;;11.85;8.30;;;;;;;10.86;71.74;100622.28;5132688;27;20055;-60
2022/10/13 03:15:01;;;;;;;12.20;9.68;;;;;;;10.93;71.26;100619.06;5133057;27;20058;-60
2022/10/13 03:17:28;;;;;;;14.07;9.30;;;;;;;10.96;71.88;100621.22;5131590;27;20062;-59
2022/10/13 03:19:56;;;;;;;9.55;7.35;;;;;;;10.98;70.98;100618.94;5133135;28;20067;-59
2022/10/13 03:22:23;;;;;;;9.63;7.22;;;;;;;11.03;70.32;100615.25;5133124;28;20055;-59
2022/10/13 03:24:55;;;;;;;9.45;7.05;;;;;;;11.02;69.73;100621.94;5132687;28;20058;-60
2022/10/13 03:27:22;;;;;;;8.27;6.93;;;;;;;11.05;69.41;100612.97;5132942;28;20055;-59
2022/10/13 03:29:49;;;;;;;10.15;7.70;;;;;;;11.10;69.45;100610.03;5132831;28;20055;-60
2022/10/13 03:32:16;;;;;;;11.77;8.15;;;;;;;11.18;69.68;100603.72;5130668;27;20054;-61
2022/10/13 03:34:44;;;;;;;12.07;9.05;;;;;;;11.22;70.38;100606.72;5132686;28;20058;-60
2022/10/13 03:37:14;;;;;;;12.27;8.73;;;;;;;11.25;70.73;100609.66;5133098;28;20055;-60
2022/10/13 03:39:41;;;;;;;12.25;10.00;;;;;;;11.30;70.89;100603.16;5132976;28;20484;-60
2022/10/13 03:42:10;;;;;;;13.90;9.85;;;;;;;11.33;70.91;100597.75;5133041;28;20059;-60
2022/10/13 03:44:41;;;;;;;12.57;9.85;;;;;;;11.34;71.25;100596.63;5132752;28;20051;-61
2022/10/13 03:47:08;;;;;;;13.75;10.68;;;;;;;11.36;71.09;100605.50;5130744;27;20059;-60
2022/10/13 03:49:37;;;;;;;13.90;9.23;;;;;;;11.38;70.67;100599.59;5131022;27;20051;-60
2022/10/13 03:52:05;;;;;;;15.37;10.40;;;;;;;11.42;70.63;100594.22;5132587;28;20503;-60
2022/10/13 03:54:32;;;;;;;12.50;9.93;;;;;;;11.46;70.03;100598.03;5132753;28;20461;-60
2022/10/13 03:57:03;;;;;;;12.93;10.70;;;;;;;11.48;69.82;100595.75;5132635;28;20055;-61
2022/10/13 03:59:32;;;;;;;14.05;10.73;;;;;;;11.49;70.79;100589.84;5132041;27;20477;-61
2022/10/13 04:01:59;;;;;;;13.75;10.38;;;;;;;11.53;70.79;100596.44;5133227;28;20059;-61
2022/10/13 04:04:26;;;;;;;16.00;11.40;;;;;;;11.60;71.71;100598.78;5132687;28;20435;-60
2022/10/13 04:06:54;;;;;;;15.82;11.75;;;;;;;11.63;71.30;100589.75;5132870;28;20387;-61
2022/10/13 04:09:21;;;;;;;13.93;10.88;;;;;;;11.66;70.75;100583.56;5132837;28;20051;-61
2022/10/13 04:11:51;;;;;;;15.07;9.45;;;;;;;11.64;70.95;100580.25;5130964;27;20047;-60
2022/10/13 04:14:18;;;;;;;13.57;9.75;;;;;;;11.70;71.32;100572.59;5132538;28;20414;-61
2022/10/13 04:16:47;;;;;;;18.67;10.65;;;;;;;11.74;71.86;100571.63;5134824;27;20055;-61
2022/10/13 04:19:15;;;;;;;13.30;10.75;;;;;;;11.81;72.20;100568.38;5136432;27;20509;-61
2022/10/13 04:21:43;;;;;;;13.20;9.77;;;;;;;11.82;71.40;100566.41;5136637;27;20055;-61
2022/10/13 04:24:12;;;;;;;9.52;8.52;;;;;;;11.85;70.59;100565.78;5136357;27;20066;-61
2022/10/13 04:26:41;;;;;;;11.07;8.27;;;;;;;11.84;69.28;100558.53;5131605;27;20094;-61
2022/10/13 04:29:18;;;;;;;8.15;6.88;;;;;;;11.78;68.58;100564.25;5129469;27;20407;-60
2022/10/13 04:31:47;;;;;;;8.98;6.85;;;;;;;11.80;68.31;100555.56;5129682;27;20074;-60
2022/10/13 04:34:14;;;;;;;9.93;7.78;;;;;;;11.78;68.18;100555.91;5126084;27;20494;-60
2022/10/13 04:36:42;;;;;;;9.07;7.57;;;;;;;11.76;68.97;100549.81;5136270;27;20356;-61
2022/10/13 04:39:10;;;;;;;13.85;9.60;;;;;;;11.86;70.39;100548.69;5136048;27;20054;-61
2022/10/13 04:41:37;;;;;;;10.45;8.07;;;;;;;11.93;71.04;100543.50;5135931;27;20055;-61
2022/10/13 04:44:05;;;;;;;14.68;10.10;;;;;;;12.02;70.82;100540.75;5135732;27;20058;-60
2022/10/13 04:46:32;;;;;;;11.18;8.15;;;;;;;12.07;70.76;100540.59;5130770;27;20054;-61
2022/10/13 04:49:00;;;;;;;10.85;8.60;;;;;;;12.08;69.72;100544.22;5135641;27;20059;-61
2022/10/13 04:51:28;;;;;;;10.25;7.57;;;;;;;12.02;68.59;100546.34;5133508;27;20055;-60
2022/10/13 04:53:56;;;;;;;11.18;7.45;;;;;;;11.96;67.95;100554.03;5135700;27;20407;-61
2022/10/13 04:56:27;;;;;;;11.50;7.43;;;;;;;11.92;67.80;100553.00;5147797;27;20062;-60
2022/10/13 04:58:54;;;;;;;15.48;8.00;;;;;;;11.87;67.54;100549.53;5128900;27;20051;-61
2022/10/13 05:01:24;;;;;;;11.85;8.75;;;;;;;11.82;67.31;100547.69;5142368;27;20050;-59
2022/10/13 05:03:52;;;;;;;10.10;9.10;;;;;;;11.76;67.50;100535.03;5148078;27;20054;-61
2022/10/13 05:06:23;;;;;;;10.65;8.07;;;;;;;11.75;68.24;100536.97;5149968;27;20414;-61
2022/10/13 05:08:53;;;;;;;10.68;7.43;;;;;;;11.73;68.14;100533.69;5147789;27;20582;-61
2022/10/13 05:11:20;;;;;;;10.60;7.97;;;;;;;11.72;68.90;100522.88;5151941;27;20066;-59
2022/10/13 05:13:48;;;;;;;10.07;7.88;;;;;;;11.73;69.28;100530.09;5145269;27;20073;-60
2022/10/13 05:16:19;;;;;;;11.88;8.25;;;;;;;11.71;69.34;100518.41;5139870;27;20047;-60
2022/10/13 05:18:47;;;;;;;13.88;9.38;;;;;;;11.71;69.62;100535.97;5131035;27;20140;-61
2022/10/13 05:21:17;;;;;;;12.35;9.70;;;;;;;11.70;70.04;100525.16;5134819;27;20092;-62
2022/10/13 05:23:46;;;;;;;13.88;8.60;;;;;;;11.69;70.15;100526.28;5134546;27;20066;-60
2022/10/13 05:26:15;;;;;;;13.77;9.10;;;;;;;11.68;70.36;100524.66;5135238;27;20463;-61
2022/10/13 05:28:43;;;;;;;14.23;8.57;;;;;;;11.71;70.35;100524.00;5133932;27;20449;-61
2022/10/13 05:31:12;;;;;;;15.65;9.18;;;;;;;11.72;70.24;100534.03;5133420;27;20055;-60
2022/10/13 05:33:40;;;;;;;13.55;8.68;;;;;;;11.74;70.50;100532.56;5134731;27;20051;-61
2022/10/13 05:36:09;;;;;;;9.95;7.90;;;;;;;11.77;70.64;100537.47;5134856;27;20058;-61
2022/10/13 05:38:37;;;;;;;11.82;8.68;;;;;;;11.80;70.87;100524.88;5134415;27;20043;-61
2022/10/13 05:41:08;;;;;;;13.60;9.48;;;;;;;11.87;70.81;100530.00;5134484;27;20491;-60
2022/10/13 05:43:36;;;;;;;11.18;9.27;;;;;;;11.89;71.08;100530.53;5133297;27;20062;-61
2022/10/13 05:46:04;;;;;;;12.82;8.95;;;;;;;11.84;70.45;100519.47;5127833;27;20058;-61
2022/10/13 05:48:31;;;;;;;14.77;9.63;;;;;;;11.84;71.29;100530.63;5133217;27;20388;-60
2022/10/13 05:51:01;;;;;;;12.45;10.30;;;;;;;11.87;71.28;100532.78;5133332;27;20514;-61
2022/10/13 05:53:32;;;;;;;17.42;10.93;;;;;;;11.88;70.33;100535.25;5134643;27;20066;-61
2022/10/13 05:56:05;;;;;;;11.45;9.10;;;;;;;11.90;70.42;100527.38;5132449;27;20054;-61
2022/10/13 05:58:36;;;;;;;13.23;9.02;;;;;;;11.93;71.33;100528.75;5134351;27;20074;-61
2022/10/13 06:01:07;;;;;;;33.33;14.07;;;;;;;11.96;70.98;100526.09;5134219;27;20150;-60
2022/10/13 06:03:35;;;;;;;24.55;12.50;;;;;;;11.97;71.54;100536.13;5134265;27;20055;-59
2022/10/13 06:06:02;;;;;;;19.65;10.80;;;;;;;12.02;70.94;100520.41;5134535;27;20463;-61
2022/10/13 06:08:30;;;;;;;14.05;9.82;;;;;;;12.04;71.15;100516.13;5133993;27;20054;-60
2022/10/13 06:10:57;;;;;;;19.25;10.90;;;;;;;12.06;70.42;100524.19;5132577;27;20059;-61
2022/10/13 06:13:25;;;;;;;24.05;9.95;;;;;;;12.13;70.65;100510.56;5134234;27;20066;-61
2022/10/13 06:15:53;;;;;;;13.98;9.75;;;;;;;12.17;70.32;100519.94;5133983;27;20066;-61
2022/10/13 06:18:20;;;;;;;18.40;10.73;;;;;;;12.22;70.52;100513.38;5134126;27;20140;-61
2022/10/13 06:20:48;;;;;;;26.63;11.85;;;;;;;12.29;70.54;100522.13;5134030;27;20499;-61
2022/10/13 06:23:15;;;;;;;18.00;11.50;;;;;;;12.36;70.71;100522.44;5131835;27;20055;-61
2022/10/13 06:25:47;;;;;;;18.05;11.40;;;;;;;12.41;70.46;100519.53;5134152;27;20055;-60
2022/10/13 06:28:15;;;;;;;16.20;9.60;;;;;;;12.44;70.51;100513.28;5131084;27;20058;-61
2022/10/13 06:30:45;;;;;;;15.20;9.38;;;;;;;12.51;70.97;100515.56;5137333;27;20046;-60
2022/10/13 06:33:15;;;;;;;15.13;8.98;;;;;;;12.53;71.27;100490.94;5117818;27;20055;-59
2022/10/13 06:35:42;;;;;;;16.55;10.07;;;;;;;12.59;71.07;100479.25;5128405;27;20066;-61
2022/10/13 06:38:09;;;;;;;15.57;10.13;;;;;;;12.64;70.63;100485.84;5133696;27;20487;-60
2022/10/13 06:40:37;;;;;;;14.15;10.50;;;;;;;12.74;70.10;100488.31;5133514;27;20062;-60
2022/10/13 06:43:04;;;;;;;12.77;9.07;;;;;;;12.82;70.66;100484.69;5133665;27;20059;-61
2022/10/13 06:45:31;;;;;;;14.50;8.30;;;;;;;12.87;68.45;100503.25;5131575;27;20411;-61
2022/10/13 06:47:58;;;;;;;15.40;8.40;;;;;;;12.84;67.64;100498.34;5133223;27;20058;-61
2022/10/13 06:50:28;;;;;;;11.65;8.00;;;;;;;12.78;67.50;100486.50;5133684;27;20055;-61
2022/10/13 06:52:55;;;;;;;13.68;8.52;;;;;;;12.76;68.08;100486.00;5133563;27;20066;-61
2022/10/13 06:55:23;;;;;;;13.75;8.00;;;;;;;12.80;67.58;100499.00;5133476;27;20082;-61
2022/10/13 06:57:50;;;;;;;14.10;9.00;;;;;;;12.84;68.17;100499.16;5130107;27;20082;-61
2022/10/13 07:00:18;;;;;;;13.27;9.63;;;;;;;12.89;68.56;100493.41;5131055;27;20062;-60
2022/10/13 07:02:45;;;;;;;13.18;9.02;;;;;;;12.92;69.15;100497.53;5133425;27;20418;-60
2022/10/13 07:05:12;;;;;;;13.88;8.93;;;;;;;13.00;69.24;100491.94;5133295;27;20055;-61
2022/10/13 07:07:41;;;;;;;13.85;9.35;;;;;;;13.09;68.76;100493.88;5132924;27;20062;-61
2022/10/13 07:10:09;;;;;;;14.55;8.45;;;;;;;13.17;68.26;100487.47;5131055;27;20054;-61
2022/10/13 07:12:36;;;;;;;14.90;9.27;;;;;;;13.26;68.28;100488.25;5133658;27;20055;-60
2022/10/13 07:15:04;;;;;;;14.55;9.48;;;;;;;13.38;68.69;100476.44;5133221;27;20058;-60
2022/10/13 07:17:31;;;;;;;14.27;9.65;;;;;;;13.54;68.02;100487.88;5133210;27;20062;-61
2022/10/13 07:19:58;;;;;;;12.75;10.55;;;;;;;13.71;67.47;100498.19;5133311;28;20399;-61
2022/10/13 07:22:26;;;;;;;14.68;9.25;;;;;;;13.93;66.99;100497.13;5131707;27;20059;-58
2022/10/13 07:24:55;;;;;;;14.65;9.45;;;;;;;14.10;67.07;100502.63;5130992;27;20072;-61
2022/10/13 07:27:23;;;;;;;12.02;8.02;;;;;;;14.28;66.31;100505.34;5132899;28;20451;-61
2022/10/13 07:29:50;;;;;;;12.23;9.10;;;;;;;14.47;65.28;100500.13;5133126;28;20117;-61
2022/10/13 07:32:17;;;;;;;36.83;16.45;;;;;;;14.73;64.91;100494.34;5132774;28;20514;-60
2022/10/13 07:34:45;;;;;;;16.25;9.50;;;;;;;14.97;64.07;100492.81;5132932;28;20055;-61
2022/10/13 07:37:12;;;;;;;13.57;9.10;;;;;;;15.30;62.99;100495.63;5132627;28;20055;-61
2022/10/13 07:39:39;;;;;;;14.68;9.20;;;;;;;15.62;61.96;100493.97;5128316;27;20514;-61
2022/10/13 07:42:08;;;;;;;14.13;9.15;;;;;;;15.93;61.44;100480.56;5126720;27;20062;-61
2022/10/13 07:44:35;;;;;;;16.40;9.48;;;;;;;16.32;60.60;100486.66;5122555;27;20051;-61
2022/10/13 07:47:02;;;;;;;12.35;9.05;;;;;;;16.83;58.62;100484.22;5126144;27;20051;-60
2022/10/13 07:49:29;;;;;;;17.98;9.00;;;;;;;17.56;57.49;100485.06;5130997;27;20446;-60
2022/10/13 07:51:56;;;;;;;14.60;9.05;;;;;;;17.68;55.88;100476.53;5135252;27;20470;-60
2022/10/13 07:54:24;;;;;;;15.80;7.90;;;;;;;18.96;53.71;100483.63;5136684;27;20062;-61
2022/10/13 07:56:51;;;;;;;16.38;9.43;;;;;;;19.33;51.34;100477.47;5134349;27;20047;-59
2022/10/13 07:59:20;;;;;;;10.82;7.15;;;;;;;19.23;51.73;100480.91;5134517;27;20078;-58
2022/10/13 08:01:48;;;;;;;10.95;7.95;;;;;;;19.54;50.26;100484.72;5136438;27;20062;-60
2022/10/13 08:04:15;;;;;;;11.10;7.93;;;;;;;21.14;47.34;100484.78;5136350;27;20055;-60
2022/10/13 08:06:43;;;;;;;8.65;6.70;;;;;;;22.81;44.39;100472.47;5136605;27;20067;-60
2022/10/13 08:09:10;;;;;;;8.25;6.32;;;;;;;24.39;40.94;100479.28;5135665;27;20069;-60
2022/10/13 08:11:38;;;;;;;12.23;6.50;;;;;;;25.01;38.36;100480.75;5136343;27;20051;-61
2022/10/13 08:14:05;;;;;;;9.70;5.60;;;;;;;25.71;37.36;100480.78;5136470;27;20418;-60
2022/10/13 08:16:34;;;;;;;9.93;5.32;;;;;;;25.23;36.61;100478.66;5136678;27;20055;-60
2022/10/13 08:19:01;;;;;;;8.13;5.55;;;;;;;23.86;38.54;100480.13;5136397;27;20063;-61
2022/10/13 08:21:29;;;;;;;10.07;6.00;;;;;;;22.63;41.38;100473.19;5136093;27;20058;-61
2022/10/13 08:23:56;;;;;;;7.00;5.45;;;;;;;22.10;42.35;100479.28;5134465;27;20421;-61
2022/10/13 08:26:26;;;;;;;10.82;6.07;;;;;;;21.73;43.29;100468.81;5135460;27;20423;-60
2022/10/13 08:28:53;;;;;;;7.13;5.43;;;;;;;21.25;44.37;100454.53;5135996;27;20051;-61
2022/10/13 08:31:21;;;;;;;7.93;5.57;;;;;;;20.70;46.15;100457.13;5135799;27;20066;-60
2022/10/13 08:33:51;;;;;;;10.23;5.75;;;;;;;20.82;45.74;100468.22;5136162;27;20062;-60
2022/10/13 08:36:19;;;;;;;8.55;5.90;;;;;;;20.79;45.52;100468.97;5135819;27;20058;-60
2022/10/13 08:38:46;;;;;;;7.80;5.85;;;;;;;20.61;46.46;100475.22;5133598;27;20055;-60
2022/10/13 08:41:17;;;;;;;10.18;6.05;;;;;;;20.75;45.59;100473.78;5135921;27;20059;-60
2022/10/13 08:43:48;;;;;;;7.70;5.13;;;;;;;20.82;45.95;100468.22;5135799;27;20529;-60
2022/10/13 08:46:18;;;;;;;9.60;5.93;;;;;;;20.92;45.06;100483.72;5135810;27;20491;-60
2022/10/13 08:48:46;;;;;;;9.43;6.32;;;;;;;20.65;45.62;100478.09;5135780;27;20156;-60
2022/10/13 08:51:15;;;;;;;8.48;5.88;;;;;;;21.04;45.17;100474.94;5135766;27;20055;-62
2022/10/13 08:53:45;;;;;;;8.23;6.20;;;;;;;21.86;43.42;100477.88;5133315;27;20055;-61
2022/10/13 08:56:19;;;;;;;7.85;5.97;;;;;;;22.85;41.26;100476.16;5136175;27;20055;-60
2022/10/13 08:58:48;;;;;;;8.40;5.53;;;;;;;23.47;39.80;100469.47;5135441;27;20059;-60
2022/10/13 09:01:18;;;;;;;6.97;5.78;;;;;;;23.25;40.28;100471.47;5135253;27;20458;-61
2022/10/13 09:03:50;;;;;;;8.50;5.55;;;;;;;24.22;38.52;100469.53;5135434;27;20055;-60
2022/10/13 09:06:27;;;;;;;9.27;6.13;;;;;;;25.61;36.12;100466.59;5134266;27;20514;-60
2022/10/13 09:08:57;;;;;;;8.30;5.45;;;;;;;27.57;33.49;100453.50;5135104;27;20117;-61
2022/10/13 09:11:32;;;;;;;9.57;5.40;;;;;;;26.50;34.44;100459.31;5135316;27;20062;-61
2022/10/13 09:14:02;;;;;;;7.30;5.57;;;;;;;26.64;34.77;100467.75;5135324;27;20078;-61
2022/10/13 09:16:35;;;;;;;8.68;5.18;;;;;;;26.72;33.97;100454.22;5134996;27;20471;-61
2022/10/13 09:19:14;;;;;;;10.43;6.22;;;;;;;26.07;34.42;100454.84;5135031;27;20437;-61
2022/10/13 09:21:43;;;;;;;9.18;5.45;;;;;;;25.92;35.03;100461.91;5132987;27;20055;-61
2022/10/13 09:24:17;;;;;;;6.30;4.88;;;;;;;26.73;34.22;100452.97;5133670;27;20059;-61
2022/10/13 09:26:47;;;;;;;7.63;4.88;;;;;;;26.85;33.20;100443.84;5135327;27;20525;-61
2022/10/13 09:29:18;;;;;;;8.85;5.20;;;;;;;26.52;33.97;100451.13;5134749;27;20058;-61
2022/10/13 09:31:45;;;;;;;11.10;5.68;;;;;;;25.27;36.58;100453.78;5134340;27;20051;-61
2022/10/13 09:34:22;;;;;;;9.55;5.50;;;;;;;25.25;36.25;100453.38;5135120;27;20062;-61
2022/10/13 09:36:58;;;;;;;10.07;5.75;;;;;;;24.00;38.74;100453.69;5132352;27;20055;-61
2022/10/13 09:39:27;;;;;;;9.88;5.50;;;;;;;24.38;37.96;100446.34;5134618;27;20062;-61
2022/10/13 09:42:18;;;;;;;7.83;5.33;;;;;;;24.33;38.17;100440.25;5134737;27;20062;-60
2022/10/13 09:44:46;;;;;;;7.32;4.95;;;;;;;24.63;37.94;100443.47;5134666;27;20457;-61
2022/10/13 09:47:20;;;;;;;10.80;5.75;;;;;;;24.56;37.21;100432.06;5134904;27;20506;-61
2022/10/13 09:50:00;;;;;;;7.60;5.38;;;;;;;25.25;36.67;100432.63;5131971;27;20418;-61
2022/10/13 09:52:29;;;;;;;9.32;5.82;;;;;;;25.17;37.32;100428.16;5134408;27;20062;-61
2022/10/13 09:54:59;;;;;;;9.90;5.47;;;;;;;24.95;36.97;100442.53;5134675;27;20058;-61
2022/10/13 09:57:37;;;;;;;9.68;5.75;;;;;;;24.80;37.77;100436.06;5134519;27;20419;-61
2022/10/13 10:00:13;;;;;;;9.80;5.47;;;;;;;24.38;38.29;100436.97;5134407;27;20149;-61
2022/10/13 10:02:47;;;;;;;7.80;5.70;;;;;;;24.04;39.09;100452.50;5132077;27;20070;-61
2022/10/13 10:05:23;;;;;;;8.10;5.90;;;;;;;24.12;38.55;100441.91;5134262;27;20426;-61
2022/10/13 10:07:52;;;;;;;8.63;5.38;;;;;;;23.94;38.88;100447.63;5132918;27;20415;-60
2022/10/13 10:10:32;;;;;;;7.78;4.72;;;;;;;24.05;38.40;100436.22;5133475;27;20057;-60
2022/10/13 10:13:00;;;;;;;7.43;5.60;;;;;;;24.67;37.54;100432.88;5134129;27;20051;-60
2022/10/13 10:15:36;;;;;;;6.75;5.40;;;;;;;26.25;34.55;100425.34;5132572;27;20479;-59
2022/10/13 10:18:11;;;;;;;13.27;5.50;;;;;;;28.06;32.14;100422.47;5133942;27;20063;-60
2022/10/13 10:21:00;;;;;;;8.50;5.05;;;;;;;29.17;29.87;100430.94;5133819;27;20055;-61
2022/10/13 10:23:38;;;;;;;;;;;;;;;28.20;32.40;100416.50;5134353;27;20055;-59
2022/10/13 10:26:12;;;;;;;7.05;5.13;;;;;;;26.97;32.88;100422.47;5134084;27;19924;-58
2022/10/13 10:28:50;;;;;;;7.45;4.38;;;;;;;28.20;31.62;100410.78;5131698;27;20047;-59
2022/10/13 10:31:38;;;;;;;7.68;5.35;;;;;;;28.34;31.29;100412.53;5133661;27;20066;-58
2022/10/13 10:34:26;;;;;;;7.68;4.82;;;;;;;28.26;31.05;100420.44;5133514;27;20063;-58
2022/10/13 10:37:05;;;;;;;12.45;5.35;;;;;;;27.64;32.02;100416.22;5133075;27;20476;-60
2022/10/13 10:39:40;;;;;;;7.68;5.10;;;;;;;26.22;33.98;100404.13;5131258;27;20054;-60
2022/10/13 10:42:18;;;;;;;7.30;4.50;;;;;;;26.60;33.78;100409.84;5133556;27;20051;-60
2022/10/13 10:44:49;;;;;;;8.10;4.73;;;;;;;25.74;34.77;100410.66;5129544;27;20518;-61
2022/10/13 10:47:24;;;;;;;8.18;4.70;;;;;;;25.61;35.13;100413.22;5132648;27;20479;-61
2022/10/13 10:49:55;;;;;;;9.15;5.30;;;;;;;25.07;36.01;100405.00;5133583;27;20078;-61
2022/10/13 10:52:28;;;;;;;9.45;5.07;;;;;;;24.65;37.19;100398.28;5133280;27;20411;-60
2022/10/13 10:55:10;;;;;;;9.10;4.93;;;;;;;24.30;37.91;100397.16;5133203;27;20058;-61
2022/10/13 10:57:49;;;;;;;9.32;5.50;;;;;;;24.17;37.91;100403.66;5131247;27;20073;-61
2022/10/13 11:00:18;;;;;;;;;;;;;;;24.35;38.09;100395.09;5133799;27;20055;-60
2022/10/13 11:02:55;;;;;;;7.30;5.13;;;;;;;24.24;37.78;100392.28;5133339;27;20360;-60
2022/10/13 11:05:23;;;;;;;7.18;4.85;;;;;;;24.91;37.04;100385.53;5133335;27;20483;-60
2022/10/13 11:07:58;;;;;;;11.15;5.53;;;;;;;25.84;35.55;100381.22;5133486;27;20055;-60
2022/10/13 11:10:27;;;;;;;9.65;5.25;;;;;;;27.32;33.54;100383.22;5133075;27;20506;-60
2022/10/13 11:13:24;;;;;;;6.47;5.13;;;;;;;29.55;30.58;100365.28;5130792;27;20541;-60
2022/10/13 11:15:52;;;;;;;6.65;4.80;;;;;;;31.22;27.52;100358.13;5133384;27;20051;-62
2022/10/13 11:18:57;;;;;;;6.80;4.70;;;;;;;30.85;28.14;100353.94;5132833;27;20434;-61
2022/10/13 11:21:25;;;;;;;7.82;4.93;;;;;;;30.07;28.87;100350.00;5133165;28;20088;-61
2022/10/13 11:23:52;;;;;;;7.63;4.80;;;;;;;29.20;29.58;100353.41;5132872;28;20059;-61
2022/10/13 11:26:43;;;;;;;7.28;4.53;;;;;;;28.39;29.93;100356.78;5132318;27;20058;-61
2022/10/13 11:29:19;;;;;;;6.85;4.60;;;;;;;27.97;30.63;100347.78;5137479;27;20047;-61
2022/10/13 11:31:54;;;;;;;5.78;3.85;;;;;;;28.31;31.19;100350.41;5137174;27;20055;-60
2022/10/13 11:34:32;;;;;;;6.22;3.88;;;;;;;28.12;30.15;100349.94;5134946;27;20051;-60
2022/10/13 11:37:01;;;;;;;4.72;3.70;;;;;;;28.51;30.07;100336.91;5136160;27;20054;-60
2022/10/13 11:40:11;;;;;;;7.57;4.25;;;;;;;29.42;28.21;100335.69;5136845;27;20051;-60